sensor_id;sensor_type;location;lat;lon;timestamp;pressure;altitude;pressure_sealevel;temperature;humidity
56174;BME280;42058;52.308;20.924;2023-04-30T00:01:20;100379.20;;;13.87;90.04
56174;BME280;42058;52.308;20.924;2023-04-30T00:03:46;100377.52;;;13.86;90.36
56174;BME280;42058;52.308;20.924;2023-04-30T00:06:13;100381.08;;;13.85;91.10
56174;BME280;42058;52.308;20.924;2023-04-30T00:08:39;100383.08;;;13.83;91.02
56174;BME280;42058;52.308;20.924;2023-04-30T00:11:05;100384.04;;;13.81;91.76
56174;BME280;42058;52.308;20.924;2023-04-30T00:13:32;100385.01;;;13.80;92.15
56174;BME280;42058;52.308;20.924;2023-04-30T00:15:58;100382.23;;;13.78;92.98
56174;BME280;42058;52.308;20.924;2023-04-30T00:18:24;100384.42;;;13.76;93.34
56174;BME280;42058;52.308;20.924;2023-04-30T00:20:51;100384.67;;;13.75;93.80
56174;BME280;42058;52.308;20.924;2023-04-30T00:23:18;100387.39;;;13.73;94.37
56174;BME280;42058;52.308;20.924;2023-04-30T00:25:44;100385.84;;;13.72;94.76
56174;BME280;42058;52.308;20.924;2023-04-30T00:28:11;100388.20;;;13.70;94.86
56174;BME280;42058;52.308;20.924;2023-04-30T00:30:37;100393.72;;;13.69;95.28
56174;BME280;42058;52.308;20.924;2023-04-30T00:33:03;100390.77;;;13.68;95.35
56174;BME280;42058;52.308;20.924;2023-04-30T00:35:30;100395.92;;;13.67;95.69
56174;BME280;42058;52.308;20.924;2023-04-30T00:37:57;100393.70;;;13.65;95.65
56174;BME280;42058;52.308;20.924;2023-04-30T00:40:23;100401.81;;;13.64;95.70
56174;BME280;42058;52.308;20.924;2023-04-30T00:42:49;100396.77;;;13.63;96.14
56174;BME280;42058;52.308;20.924;2023-04-30T00:45:17;100397.16;;;13.62;96.32
56174;BME280;42058;52.308;20.924;2023-04-30T00:47:47;100400.56;;;13.60;96.39
56174;BME280;42058;52.308;20.924;2023-04-30T00:50:14;100403.45;;;13.59;96.51
56174;BME280;42058;52.308;20.924;2023-04-30T00:52:42;100403.50;;;13.57;96.78
56174;BME280;42058;52.308;20.924;2023-04-30T00:55:10;100405.49;;;13.56;97.25
56174;BME280;42058;52.308;20.924;2023-04-30T00:57:37;100407.13;;;13.55;97.02
56174;BME280;42058;52.308;20.924;2023-04-30T01:00:04;100405.09;;;13.53;97.58
56174;BME280;42058;52.308;20.924;2023-04-30T01:02:31;100405.66;;;13.52;97.66
56174;BME280;42058;52.308;20.924;2023-04-30T01:04:58;100405.71;;;13.50;98.17
56174;BME280;42058;52.308;20.924;2023-04-30T01:07:24;100402.29;;;13.48;97.84
56174;BME280;42058;52.308;20.924;2023-04-30T01:09:53;100402.00;;;13.47;98.16
56174;BME280;42058;52.308;20.924;2023-04-30T01:12:28;100402.70;;;13.46;98.44
56174;BME280;42058;52.308;20.924;2023-04-30T01:17:49;100404.58;;;13.44;98.48
56174;BME280;42058;52.308;20.924;2023-04-30T01:20:18;100401.80;;;13.42;98.77
56174;BME280;42058;52.308;20.924;2023-04-30T01:22:50;100405.89;;;13.41;98.95
56174;BME280;42058;52.308;20.924;2023-04-30T01:28:22;100416.88;;;13.40;99.27
56174;BME280;42058;52.308;20.924;2023-04-30T01:30:50;100415.70;;;13.39;99.32
56174;BME280;42058;52.308;20.924;2023-04-30T01:33:17;100418.37;;;13.37;99.42
56174;BME280;42058;52.308;20.924;2023-04-30T01:41:39;100421.55;;;13.33;99.73
56174;BME280;42058;52.308;20.924;2023-04-30T01:49:50;100422.61;;;13.27;99.98
56174;BME280;42058;52.308;20.924;2023-04-30T01:55:00;100428.02;;;13.24;100.00
56174;BME280;42058;52.308;20.924;2023-04-30T01:57:42;100429.83;;;13.22;100.00
56174;BME280;42058;52.308;20.924;2023-04-30T02:00:10;100435.52;;;13.21;100.00
56174;BME280;42058;52.308;20.924;2023-04-30T02:02:39;100437.52;;;13.20;100.00
56174;BME280;42058;52.308;20.924;2023-04-30T02:05:06;100438.44;;;13.18;100.00
56174;BME280;42058;52.308;20.924;2023-04-30T02:07:39;100440.77;;;13.17;100.00
56174;BME280;42058;52.308;20.924;2023-04-30T02:10:07;100437.98;;;13.16;100.00
56174;BME280;42058;52.308;20.924;2023-04-30T02:12:34;100438.91;;;13.15;100.00
56174;BME280;42058;52.308;20.924;2023-04-30T02:15:02;100440.73;;;13.14;100.00
56174;BME280;42058;52.308;20.924;2023-04-30T02:17:28;100445.01;;;13.12;100.00
56174;BME280;42058;52.308;20.924;2023-04-30T02:19:54;100443.30;;;13.11;100.00
56174;BME280;42058;52.308;20.924;2023-04-30T02:22:21;100448.11;;;13.09;100.00
56174;BME280;42058;52.308;20.924;2023-04-30T02:24:48;100448.34;;;13.08;100.00
56174;BME280;42058;52.308;20.924;2023-04-30T02:27:14;100449.80;;;13.06;100.00
56174;BME280;42058;52.308;20.924;2023-04-30T02:29:41;100454.11;;;13.04;100.00
56174;BME280;42058;52.308;20.924;2023-04-30T02:32:07;100456.82;;;13.02;100.00
56174;BME280;42058;52.308;20.924;2023-04-30T02:34:34;100456.40;;;12.99;100.00
56174;BME280;42058;52.308;20.924;2023-04-30T02:37:02;100460.69;;;12.98;100.00
56174;BME280;42058;52.308;20.924;2023-04-30T02:39:28;100468.65;;;12.96;100.00
56174;BME280;42058;52.308;20.924;2023-04-30T02:41:55;100469.29;;;12.94;100.00
56174;BME280;42058;52.308;20.924;2023-04-30T02:44:21;100475.85;;;12.92;100.00
56174;BME280;42058;52.308;20.924;2023-04-30T02:46:47;100479.63;;;12.90;100.00
56174;BME280;42058;52.308;20.924;2023-04-30T02:49:14;100486.90;;;12.88;100.00
56174;BME280;42058;52.308;20.924;2023-04-30T02:51:40;100492.42;;;12.86;100.00
56174;BME280;42058;52.308;20.924;2023-04-30T02:54:06;100491.84;;;12.83;100.00
56174;BME280;42058;52.308;20.924;2023-04-30T02:56:33;100499.13;;;12.81;100.00
56174;BME280;42058;52.308;20.924;2023-04-30T02:59:00;100501.48;;;12.79;100.00
56174;BME280;42058;52.308;20.924;2023-04-30T03:01:26;100504.75;;;12.76;100.00
56174;BME280;42058;52.308;20.924;2023-04-30T03:03:53;100507.77;;;12.75;100.00
56174;BME280;42058;52.308;20.924;2023-04-30T03:06:19;100512.04;;;12.74;100.00
56174;BME280;42058;52.308;20.924;2023-04-30T03:08:46;100513.14;;;12.72;100.00
56174;BME280;42058;52.308;20.924;2023-04-30T03:11:12;100510.96;;;12.69;100.00
56174;BME280;42058;52.308;20.924;2023-04-30T03:13:39;100516.83;;;12.68;100.00
56174;BME280;42058;52.308;20.924;2023-04-30T03:16:06;100520.76;;;12.66;100.00
56174;BME280;42058;52.308;20.924;2023-04-30T03:18:32;100524.52;;;12.64;100.00
56174;BME280;42058;52.308;20.924;2023-04-30T03:20:58;100528.10;;;12.62;100.00
56174;BME280;42058;52.308;20.924;2023-04-30T03:23:26;100527.48;;;12.59;100.00
56174;BME280;42058;52.308;20.924;2023-04-30T03:25:53;100528.29;;;12.57;100.00
56174;BME280;42058;52.308;20.924;2023-04-30T03:28:20;100533.83;;;12.54;100.00
56174;BME280;42058;52.308;20.924;2023-04-30T03:30:46;100536.05;;;12.50;100.00
56174;BME280;42058;52.308;20.924;2023-04-30T03:33:12;100543.75;;;12.46;100.00
56174;BME280;42058;52.308;20.924;2023-04-30T03:35:39;100545.85;;;12.41;100.00
56174;BME280;42058;52.308;20.924;2023-04-30T03:38:05;100557.35;;;12.34;100.00
56174;BME280;42058;52.308;20.924;2023-04-30T03:40:31;100564.98;;;12.26;100.00
56174;BME280;42058;52.308;20.924;2023-04-30T03:42:58;100566.98;;;12.19;100.00
56174;BME280;42058;52.308;20.924;2023-04-30T03:45:24;100568.06;;;12.12;100.00
56174;BME280;42058;52.308;20.924;2023-04-30T03:47:50;100573.38;;;12.05;100.00
56174;BME280;42058;52.308;20.924;2023-04-30T03:50:18;100579.21;;;11.97;100.00
56174;BME280;42058;52.308;20.924;2023-04-30T03:52:44;100582.75;;;11.90;99.94
56174;BME280;42058;52.308;20.924;2023-04-30T03:55:12;100586.05;;;11.86;99.97
56174;BME280;42058;52.308;20.924;2023-04-30T03:57:39;100587.96;;;11.80;99.89
56174;BME280;42058;52.308;20.924;2023-04-30T04:00:07;100587.23;;;11.75;99.72
56174;BME280;42058;52.308;20.924;2023-04-30T04:02:43;100595.90;;;11.66;99.03
56174;BME280;42058;52.308;20.924;2023-04-30T04:05:10;100602.92;;;11.61;99.76
56174;BME280;42058;52.308;20.924;2023-04-30T04:07:37;100605.52;;;11.55;99.24
56174;BME280;42058;52.308;20.924;2023-04-30T04:10:03;100610.74;;;11.51;99.76
56174;BME280;42058;52.308;20.924;2023-04-30T04:12:30;100618.74;;;11.47;100.00
56174;BME280;42058;52.308;20.924;2023-04-30T04:14:56;100621.30;;;11.44;99.93
56174;BME280;42058;52.308;20.924;2023-04-30T04:17:23;100624.75;;;11.40;99.44
56174;BME280;42058;52.308;20.924;2023-04-30T04:19:49;100632.20;;;11.37;99.65
56174;BME280;42058;52.308;20.924;2023-04-30T04:22:16;100638.61;;;11.33;99.92
56174;BME280;42058;52.308;20.924;2023-04-30T04:24:43;100641.64;;;11.32;100.00
56174;BME280;42058;52.308;20.924;2023-04-30T04:27:10;100642.02;;;11.30;100.00
56174;BME280;42058;52.308;20.924;2023-04-30T04:29:37;100641.92;;;11.28;100.00
56174;BME280;42058;52.308;20.924;2023-04-30T04:32:03;100653.34;;;11.27;100.00
56174;BME280;42058;52.308;20.924;2023-04-30T04:34:32;100647.93;;;11.26;100.00
56174;BME280;42058;52.308;20.924;2023-04-30T04:36:58;100654.11;;;11.25;100.00
56174;BME280;42058;52.308;20.924;2023-04-30T04:39:24;100657.66;;;11.23;100.00
56174;BME280;42058;52.308;20.924;2023-04-30T04:41:51;100659.81;;;11.22;100.00
56174;BME280;42058;52.308;20.924;2023-04-30T04:44:18;100665.77;;;11.22;99.95
56174;BME280;42058;52.308;20.924;2023-04-30T04:46:44;100671.08;;;11.21;100.00
56174;BME280;42058;52.308;20.924;2023-04-30T04:49:11;100676.35;;;11.20;100.00
56174;BME280;42058;52.308;20.924;2023-04-30T04:51:37;100676.92;;;11.19;100.00
56174;BME280;42058;52.308;20.924;2023-04-30T04:54:04;100680.63;;;11.18;99.93
56174;BME280;42058;52.308;20.924;2023-04-30T04:56:31;100682.23;;;11.17;99.83
56174;BME280;42058;52.308;20.924;2023-04-30T04:58:58;100687.71;;;11.16;99.56
56174;BME280;42058;52.308;20.924;2023-04-30T05:01:24;100687.24;;;11.13;99.86
56174;BME280;42058;52.308;20.924;2023-04-30T05:03:51;100694.65;;;11.12;99.66
56174;BME280;42058;52.308;20.924;2023-04-30T05:06:18;100698.04;;;11.10;99.75
56174;BME280;42058;52.308;20.924;2023-04-30T05:08:45;100696.14;;;11.08;99.71
56174;BME280;42058;52.308;20.924;2023-04-30T05:11:11;100701.62;;;11.07;99.49
56174;BME280;42058;52.308;20.924;2023-04-30T05:13:40;100704.98;;;11.06;99.32
56174;BME280;42058;52.308;20.924;2023-04-30T05:16:07;100709.21;;;11.05;99.34
56174;BME280;42058;52.308;20.924;2023-04-30T05:18:33;100715.73;;;11.05;99.27
56174;BME280;42058;52.308;20.924;2023-04-30T05:20:59;100718.55;;;11.04;99.39
56174;BME280;42058;52.308;20.924;2023-04-30T05:23:26;100723.81;;;11.04;99.53
56174;BME280;42058;52.308;20.924;2023-04-30T05:25:53;100724.52;;;11.04;99.57
56174;BME280;42058;52.308;20.924;2023-04-30T05:28:20;100732.05;;;11.05;99.43
56174;BME280;42058;52.308;20.924;2023-04-30T05:30:46;100732.88;;;11.06;99.53
56174;BME280;42058;52.308;20.924;2023-04-30T05:33:13;100733.73;;;11.08;99.70
56174;BME280;42058;52.308;20.924;2023-04-30T05:35:39;100737.73;;;11.09;99.64
56174;BME280;42058;52.308;20.924;2023-04-30T05:38:05;100740.33;;;11.11;99.53
56174;BME280;42058;52.308;20.924;2023-04-30T05:40:32;100738.89;;;11.12;99.64
56174;BME280;42058;52.308;20.924;2023-04-30T05:42:58;100743.96;;;11.13;99.43
56174;BME280;42058;52.308;20.924;2023-04-30T05:45:25;100749.89;;;11.15;99.61
56174;BME280;42058;52.308;20.924;2023-04-30T05:47:51;100752.82;;;11.17;99.96
56174;BME280;42058;52.308;20.924;2023-04-30T05:50:18;100755.23;;;11.19;99.84
56174;BME280;42058;52.308;20.924;2023-04-30T05:52:44;100760.77;;;11.22;99.79
56174;BME280;42058;52.308;20.924;2023-04-30T05:55:11;100760.77;;;11.23;99.67
56174;BME280;42058;52.308;20.924;2023-04-30T05:57:37;100765.97;;;11.25;99.86
56174;BME280;42058;52.308;20.924;2023-04-30T06:00:04;100768.05;;;11.27;99.82
56174;BME280;42058;52.308;20.924;2023-04-30T06:02:40;100768.19;;;11.28;99.68
56174;BME280;42058;52.308;20.924;2023-04-30T06:05:07;100770.27;;;11.29;98.90
56174;BME280;42058;52.308;20.924;2023-04-30T06:07:34;100772.13;;;11.32;99.02
56174;BME280;42058;52.308;20.924;2023-04-30T06:10:00;100775.60;;;11.34;99.42
56174;BME280;42058;52.308;20.924;2023-04-30T06:12:26;100775.23;;;11.42;99.83
56174;BME280;42058;52.308;20.924;2023-04-30T06:14:53;100772.02;;;11.51;99.86
56174;BME280;42058;52.308;20.924;2023-04-30T06:17:19;100773.24;;;11.58;99.59
56174;BME280;42058;52.308;20.924;2023-04-30T06:19:45;100775.92;;;11.64;98.79
56174;BME280;42058;52.308;20.924;2023-04-30T06:22:12;100782.86;;;11.67;97.93
56174;BME280;42058;52.308;20.924;2023-04-30T06:24:38;100784.04;;;11.69;96.60
56174;BME280;42058;52.308;20.924;2023-04-30T06:27:05;100787.10;;;11.74;96.03
56174;BME280;42058;52.308;20.924;2023-04-30T06:29:32;100788.95;;;11.83;95.59
56174;BME280;42058;52.308;20.924;2023-04-30T06:31:58;100783.20;;;11.96;95.39
56174;BME280;42058;52.308;20.924;2023-04-30T06:34:24;100781.55;;;12.12;94.54
56174;BME280;42058;52.308;20.924;2023-04-30T06:36:51;100780.37;;;12.29;94.18
56174;BME280;42058;52.308;20.924;2023-04-30T06:39:21;100781.67;;;12.45;93.64
56174;BME280;42058;52.308;20.924;2023-04-30T06:41:47;100783.46;;;12.62;92.42
56174;BME280;42058;52.308;20.924;2023-04-30T06:44:13;100781.04;;;12.79;90.91
56174;BME280;42058;52.308;20.924;2023-04-30T06:46:40;100783.50;;;12.91;88.07
56174;BME280;42058;52.308;20.924;2023-04-30T06:49:09;100785.77;;;13.03;86.91
56174;BME280;42058;52.308;20.924;2023-04-30T06:51:36;100787.27;;;13.17;86.29
56174;BME280;42058;52.308;20.924;2023-04-30T06:54:02;100785.75;;;13.32;85.22
56174;BME280;42058;52.308;20.924;2023-04-30T06:56:28;100782.40;;;13.49;83.40
56174;BME280;42058;52.308;20.924;2023-04-30T06:58:55;100785.02;;;13.61;79.74
56174;BME280;42058;52.308;20.924;2023-04-30T07:01:21;100785.41;;;13.70;76.48
56174;BME280;42058;52.308;20.924;2023-04-30T07:03:47;100784.45;;;13.78;74.21
56174;BME280;42058;52.308;20.924;2023-04-30T07:06:14;100786.00;;;13.89;74.73
56174;BME280;42058;52.308;20.924;2023-04-30T07:08:41;100786.30;;;14.00;74.72
56174;BME280;42058;52.308;20.924;2023-04-30T07:11:09;100789.16;;;14.15;74.41
56174;BME280;42058;52.308;20.924;2023-04-30T07:13:35;100785.05;;;14.31;73.76
56174;BME280;42058;52.308;20.924;2023-04-30T07:16:01;100794.73;;;14.41;70.31
56174;BME280;42058;52.308;20.924;2023-04-30T07:18:28;100795.80;;;14.41;67.64
56174;BME280;42058;52.308;20.924;2023-04-30T07:20:54;100798.73;;;14.38;66.31
56174;BME280;42058;52.308;20.924;2023-04-30T07:23:21;100801.13;;;14.40;65.58
56174;BME280;42058;52.308;20.924;2023-04-30T07:25:48;100799.55;;;14.49;65.68
56174;BME280;42058;52.308;20.924;2023-04-30T07:28:14;100802.52;;;14.61;64.32
56174;BME280;42058;52.308;20.924;2023-04-30T07:30:40;100808.80;;;14.72;62.85
56174;BME280;42058;52.308;20.924;2023-04-30T07:33:07;100802.44;;;14.82;62.49
56174;BME280;42058;52.308;20.924;2023-04-30T07:35:34;100805.02;;;14.93;61.39
56174;BME280;42058;52.308;20.924;2023-04-30T07:38:01;100808.40;;;15.01;61.57
56174;BME280;42058;52.308;20.924;2023-04-30T07:40:27;100813.44;;;15.12;61.56
56174;BME280;42058;52.308;20.924;2023-04-30T07:43:02;100810.84;;;15.25;61.44
56174;BME280;42058;52.308;20.924;2023-04-30T07:45:29;100803.88;;;15.40;61.29
56174;BME280;42058;52.308;20.924;2023-04-30T07:47:56;100809.61;;;15.55;60.82
56174;BME280;42058;52.308;20.924;2023-04-30T07:50:23;100814.98;;;15.71;59.99
56174;BME280;42058;52.308;20.924;2023-04-30T07:52:49;100822.41;;;15.88;59.65
56174;BME280;42058;52.308;20.924;2023-04-30T07:55:16;100823.65;;;16.01;58.37
56174;BME280;42058;52.308;20.924;2023-04-30T07:57:42;100824.62;;;16.11;57.48
56174;BME280;42058;52.308;20.924;2023-04-30T08:00:08;100822.19;;;16.22;57.77
56174;BME280;42058;52.308;20.924;2023-04-30T08:02:38;100823.99;;;16.34;57.52
56174;BME280;42058;52.308;20.924;2023-04-30T08:05:05;100829.11;;;16.42;56.49
56174;BME280;42058;52.308;20.924;2023-04-30T08:07:31;100821.91;;;16.53;56.27
56174;BME280;42058;52.308;20.924;2023-04-30T08:09:57;100830.16;;;16.62;55.35
56174;BME280;42058;52.308;20.924;2023-04-30T08:12:23;100828.27;;;16.69;54.90
56174;BME280;42058;52.308;20.924;2023-04-30T08:14:58;100829.18;;;16.76;54.78
56174;BME280;42058;52.308;20.924;2023-04-30T08:17:33;100836.30;;;16.84;54.15
56174;BME280;42058;52.308;20.924;2023-04-30T08:20:02;100830.23;;;16.93;53.57
56174;BME280;42058;52.308;20.924;2023-04-30T08:22:29;100830.36;;;17.01;53.43
56174;BME280;42058;52.308;20.924;2023-04-30T08:24:55;100834.54;;;17.10;53.15
56174;BME280;42058;52.308;20.924;2023-04-30T08:27:22;100839.87;;;17.21;52.54
56174;BME280;42058;52.308;20.924;2023-04-30T08:29:48;100842.23;;;17.32;51.61
56174;BME280;42058;52.308;20.924;2023-04-30T08:32:14;100844.02;;;17.38;50.25
56174;BME280;42058;52.308;20.924;2023-04-30T08:34:41;100847.76;;;17.42;49.36
56174;BME280;42058;52.308;20.924;2023-04-30T08:37:08;100848.25;;;17.42;48.02
56174;BME280;42058;52.308;20.924;2023-04-30T08:39:34;100850.38;;;17.46;48.00
56174;BME280;42058;52.308;20.924;2023-04-30T08:42:02;100854.46;;;17.50;47.38
56174;BME280;42058;52.308;20.924;2023-04-30T08:44:31;100862.32;;;17.53;45.89
56174;BME280;42058;52.308;20.924;2023-04-30T08:46:58;100864.48;;;17.52;44.48
56174;BME280;42058;52.308;20.924;2023-04-30T08:49:26;100860.98;;;17.51;44.60
56174;BME280;42058;52.308;20.924;2023-04-30T08:51:53;100861.65;;;17.55;45.33
56174;BME280;42058;52.308;20.924;2023-04-30T08:54:23;100863.14;;;17.61;44.06
56174;BME280;42058;52.308;20.924;2023-04-30T08:56:54;100862.67;;;17.67;43.97
56174;BME280;42058;52.308;20.924;2023-04-30T08:59:21;100859.52;;;17.73;44.26
56174;BME280;42058;52.308;20.924;2023-04-30T09:01:48;100870.73;;;17.83;44.35
56174;BME280;42058;52.308;20.924;2023-04-30T09:04:17;100869.81;;;17.92;44.21
56174;BME280;42058;52.308;20.924;2023-04-30T09:06:44;100865.42;;;18.02;44.62
56174;BME280;42058;52.308;20.924;2023-04-30T09:09:12;100862.25;;;18.15;44.96
56174;BME280;42058;52.308;20.924;2023-04-30T09:11:39;100862.76;;;18.29;44.61
56174;BME280;42058;52.308;20.924;2023-04-30T09:14:07;100872.05;;;18.42;44.17
56174;BME280;42058;52.308;20.924;2023-04-30T09:16:48;100874.86;;;18.53;43.89
56174;BME280;42058;52.308;20.924;2023-04-30T09:19:26;100876.48;;;18.66;43.10
56174;BME280;42058;52.308;20.924;2023-04-30T09:21:53;100884.70;;;18.75;42.58
56174;BME280;42058;52.308;20.924;2023-04-30T09:24:20;100882.98;;;18.81;41.56
56174;BME280;42058;52.308;20.924;2023-04-30T09:26:46;100885.42;;;18.85;41.71
56174;BME280;42058;52.308;20.924;2023-04-30T09:29:13;100884.16;;;18.89;41.94
56174;BME280;42058;52.308;20.924;2023-04-30T09:31:46;100878.29;;;18.96;42.15
56174;BME280;42058;52.308;20.924;2023-04-30T09:34:13;100875.30;;;19.02;42.16
56174;BME280;42058;52.308;20.924;2023-04-30T09:36:59;100878.27;;;19.10;41.99
56174;BME280;42058;52.308;20.924;2023-04-30T09:39:26;100884.32;;;19.16;42.16
56174;BME280;42058;52.308;20.924;2023-04-30T09:42:06;100885.34;;;19.20;41.09
56174;BME280;42058;52.308;20.924;2023-04-30T09:44:36;100882.43;;;19.21;40.81
56174;BME280;42058;52.308;20.924;2023-04-30T09:47:03;100890.74;;;19.22;40.86
56174;BME280;42058;52.308;20.924;2023-04-30T09:49:30;100885.35;;;19.23;41.35
56174;BME280;42058;52.308;20.924;2023-04-30T09:51:58;100886.92;;;19.26;41.14
56174;BME280;42058;52.308;20.924;2023-04-30T09:54:30;100881.63;;;19.29;40.62
56174;BME280;42058;52.308;20.924;2023-04-30T09:56:59;100887.37;;;19.28;40.79
56174;BME280;42058;52.308;20.924;2023-04-30T09:59:31;100885.30;;;19.27;40.29
56174;BME280;42058;52.308;20.924;2023-04-30T10:02:01;100880.39;;;19.26;40.25
56174;BME280;42058;52.308;20.924;2023-04-30T10:04:36;100882.90;;;19.25;40.23
56174;BME280;42058;52.308;20.924;2023-04-30T10:07:08;100879.54;;;19.25;39.93
56174;BME280;42058;52.308;20.924;2023-04-30T10:09:43;100878.60;;;19.23;39.24
56174;BME280;42058;52.308;20.924;2023-04-30T10:12:14;100876.23;;;19.11;38.27
56174;BME280;42058;52.308;20.924;2023-04-30T10:14:52;100872.55;;;19.03;38.89
56174;BME280;42058;52.308;20.924;2023-04-30T10:17:25;100869.98;;;18.98;38.68
56174;BME280;42058;52.308;20.924;2023-04-30T10:19:56;100865.19;;;18.95;39.23
56174;BME280;42058;52.308;20.924;2023-04-30T10:22:24;100865.55;;;18.92;39.25
56174;BME280;42058;52.308;20.924;2023-04-30T10:24:51;100868.48;;;18.90;38.87
56174;BME280;42058;52.308;20.924;2023-04-30T10:27:17;100865.98;;;18.83;38.18
56174;BME280;42058;52.308;20.924;2023-04-30T10:29:44;100872.49;;;18.78;38.46
56174;BME280;42058;52.308;20.924;2023-04-30T10:32:11;100872.54;;;18.73;38.80
56174;BME280;42058;52.308;20.924;2023-04-30T10:34:48;100872.77;;;18.72;39.04
56174;BME280;42058;52.308;20.924;2023-04-30T10:37:23;100878.23;;;18.73;39.58
56174;BME280;42058;52.308;20.924;2023-04-30T10:39:53;100873.11;;;18.73;39.05
56174;BME280;42058;52.308;20.924;2023-04-30T10:42:21;100873.55;;;18.74;40.24
56174;BME280;42058;52.308;20.924;2023-04-30T10:44:47;100872.51;;;18.77;40.21
56174;BME280;42058;52.308;20.924;2023-04-30T10:47:15;100870.75;;;18.81;39.16
56174;BME280;42058;52.308;20.924;2023-04-30T10:49:45;100878.23;;;18.80;37.91
56174;BME280;42058;52.308;20.924;2023-04-30T10:52:13;100879.73;;;18.75;37.50
56174;BME280;42058;52.308;20.924;2023-04-30T10:54:48;100872.39;;;18.73;38.77
56174;BME280;42058;52.308;20.924;2023-04-30T10:57:16;100870.55;;;18.74;38.57
56174;BME280;42058;52.308;20.924;2023-04-30T10:59:51;100877.46;;;18.74;37.60
56174;BME280;42058;52.308;20.924;2023-04-30T11:02:18;100879.55;;;18.72;37.56
56174;BME280;42058;52.308;20.924;2023-04-30T11:07:33;100875.32;;;18.68;37.82
56174;BME280;42058;52.308;20.924;2023-04-30T11:10:00;100885.73;;;18.70;38.32
56174;BME280;42058;52.308;20.924;2023-04-30T11:12:28;100893.41;;;18.72;37.74
56174;BME280;42058;52.308;20.924;2023-04-30T11:15:10;100890.23;;;18.72;37.54
56174;BME280;42058;52.308;20.924;2023-04-30T11:17:37;100893.40;;;18.72;37.72
56174;BME280;42058;52.308;20.924;2023-04-30T11:20:05;100893.08;;;18.72;37.92
56174;BME280;42058;52.308;20.924;2023-04-30T11:22:31;100890.73;;;18.72;37.43
56174;BME280;42058;52.308;20.924;2023-04-30T11:25:09;100894.54;;;18.71;37.28
56174;BME280;42058;52.308;20.924;2023-04-30T11:27:37;100896.39;;;18.73;38.07
56174;BME280;42058;52.308;20.924;2023-04-30T11:30:10;100897.65;;;18.76;38.81
56174;BME280;42058;52.308;20.924;2023-04-30T11:32:38;100886.86;;;18.82;39.16
56174;BME280;42058;52.308;20.924;2023-04-30T11:35:06;100892.28;;;18.87;38.13
56174;BME280;42058;52.308;20.924;2023-04-30T11:37:38;100886.69;;;18.92;38.56
56174;BME280;42058;52.308;20.924;2023-04-30T11:40:06;100886.77;;;18.97;38.52
56174;BME280;42058;52.308;20.924;2023-04-30T11:42:34;100887.59;;;19.01;38.45
56174;BME280;42058;52.308;20.924;2023-04-30T11:45:14;100893.25;;;19.06;38.19
56174;BME280;42058;52.308;20.924;2023-04-30T11:47:45;100895.95;;;19.08;37.83
56174;BME280;42058;52.308;20.924;2023-04-30T11:50:14;100898.77;;;19.15;38.26
56174;BME280;42058;52.308;20.924;2023-04-30T11:52:41;100902.37;;;19.24;37.93
56174;BME280;42058;52.308;20.924;2023-04-30T11:55:16;100907.42;;;19.32;38.20
56174;BME280;42058;52.308;20.924;2023-04-30T11:57:45;100899.61;;;19.42;37.91
56174;BME280;42058;52.308;20.924;2023-04-30T12:00:16;100894.40;;;19.49;37.64
56174;BME280;42058;52.308;20.924;2023-04-30T12:02:45;100895.85;;;19.58;38.28
56174;BME280;42058;52.308;20.924;2023-04-30T12:05:19;100895.05;;;19.66;37.57
56174;BME280;42058;52.308;20.924;2023-04-30T12:07:54;100901.86;;;19.75;37.09
56174;BME280;42058;52.308;20.924;2023-04-30T12:10:22;100906.19;;;19.80;36.86
56174;BME280;42058;52.308;20.924;2023-04-30T12:12:49;100905.32;;;19.89;36.74
56174;BME280;42058;52.308;20.924;2023-04-30T12:15:23;100905.73;;;19.97;37.07
56174;BME280;42058;52.308;20.924;2023-04-30T12:17:55;100908.47;;;20.08;37.20
56174;BME280;42058;52.308;20.924;2023-04-30T12:20:25;100905.48;;;20.20;36.71
56174;BME280;42058;52.308;20.924;2023-04-30T12:22:52;100906.95;;;20.28;36.11
56174;BME280;42058;52.308;20.924;2023-04-30T12:25:21;100906.76;;;20.38;36.98
56174;BME280;42058;52.308;20.924;2023-04-30T12:27:49;100900.66;;;20.47;36.18
56174;BME280;42058;52.308;20.924;2023-04-30T12:30:21;100893.43;;;20.54;35.97
56174;BME280;42058;52.308;20.924;2023-04-30T12:32:49;100896.41;;;20.62;36.13
56174;BME280;42058;52.308;20.924;2023-04-30T12:35:17;100901.27;;;20.67;35.41
56174;BME280;42058;52.308;20.924;2023-04-30T12:37:46;100904.17;;;20.66;33.96
56174;BME280;42058;52.308;20.924;2023-04-30T12:40:13;100901.60;;;20.64;34.84
56174;BME280;42058;52.308;20.924;2023-04-30T12:42:42;100898.69;;;20.71;35.38
56174;BME280;42058;52.308;20.924;2023-04-30T12:45:10;100902.34;;;20.81;35.05
56174;BME280;42058;52.308;20.924;2023-04-30T12:47:38;100896.55;;;20.88;34.67
56174;BME280;42058;52.308;20.924;2023-04-30T12:50:08;100897.89;;;20.96;34.13
56174;BME280;42058;52.308;20.924;2023-04-30T12:52:34;100897.20;;;21.01;33.84
56174;BME280;42058;52.308;20.924;2023-04-30T12:55:20;100894.06;;;21.08;34.13
56174;BME280;42058;52.308;20.924;2023-04-30T12:58:11;100893.09;;;21.18;34.37
56174;BME280;42058;52.308;20.924;2023-04-30T13:00:49;100883.65;;;21.29;34.70
56174;BME280;42058;52.308;20.924;2023-04-30T13:03:20;100884.58;;;21.37;34.43
56174;BME280;42058;52.308;20.924;2023-04-30T13:05:49;100886.45;;;21.38;33.66